createdAt,value
2022-10-24T00:02:46.349Z,8.20
2022-10-24T00:05:52.770Z,7.66
2022-10-24T00:08:59.091Z,7.74
2022-10-24T00:12:05.783Z,7.56
2022-10-24T00:15:12.135Z,7.12
2022-10-24T00:18:19.635Z,6.47
2022-10-24T00:21:25.677Z,7.36
2022-10-24T00:24:32.023Z,8.01
2022-10-24T00:27:38.386Z,7.17
2022-10-24T00:30:44.836Z,7.36
2022-10-24T00:33:52.251Z,7.71
2022-10-24T00:36:58.239Z,7.05
2022-10-24T00:40:05.417Z,6.99
2022-10-24T00:43:16.374Z,7.60
2022-10-24T00:46:22.635Z,7.65
2022-10-24T00:49:33.203Z,7.76
2022-10-24T00:52:44.616Z,8.22
2022-10-24T00:55:53.538Z,8.33
2022-10-24T00:59:00.918Z,8.31
2022-10-24T01:02:07.440Z,8.71
2022-10-24T01:05:15.927Z,8.66
2022-10-24T01:08:32.590Z,8.76
2022-10-24T01:11:54.881Z,8.56
2022-10-24T01:15:06.868Z,8.59
2022-10-24T01:18:18.746Z,8.43
2022-10-24T01:21:34.350Z,8.48
2022-10-24T01:24:59.489Z,8.31
2022-10-24T01:28:10.279Z,8.33
2022-10-24T01:31:26.098Z,8.11
2022-10-24T01:34:42.863Z,8.13
2022-10-24T01:37:54.108Z,8.24
2022-10-24T01:41:04.132Z,8.28
2022-10-24T01:44:16.681Z,8.44
2022-10-24T01:47:28.112Z,7.48
2022-10-24T01:50:38.103Z,6.99
2022-10-24T01:53:45.317Z,6.89
2022-10-24T01:56:52.848Z,7.18
2022-10-24T01:59:58.899Z,7.19
2022-10-24T02:03:17.387Z,7.12
2022-10-24T02:06:28.382Z,6.91
2022-10-24T02:09:37.037Z,7.02
2022-10-24T02:12:50.640Z,7.24
2022-10-24T02:15:59.866Z,7.65
2022-10-24T02:19:07.731Z,7.79
2022-10-24T02:22:22.885Z,7.28
2022-10-24T02:25:35.073Z,7.41
2022-10-24T02:28:44.850Z,7.03
2022-10-24T02:31:55.443Z,6.92
2022-10-24T02:35:05.500Z,7.23
2022-10-24T02:38:17.051Z,6.88
2022-10-24T02:41:26.946Z,6.90
2022-10-24T02:44:33.863Z,6.82
2022-10-24T02:47:42.051Z,6.77
2022-10-24T02:53:58.330Z,7.04
2022-10-24T02:57:05.460Z,7.40
2022-10-24T03:00:12.602Z,6.73
2022-10-24T03:03:18.620Z,7.14
2022-10-24T03:06:26.618Z,7.25
2022-10-24T03:09:32.547Z,7.01
2022-10-24T03:12:38.822Z,6.87
2022-10-24T03:15:45.085Z,6.90
2022-10-24T03:18:51.166Z,6.39
2022-10-24T03:21:58.866Z,6.56
2022-10-24T03:25:06.433Z,6.24
2022-10-24T03:28:12.708Z,6.05
2022-10-24T03:31:19.155Z,6.50
2022-10-24T03:34:25.575Z,6.59
2022-10-24T03:37:33.068Z,6.61
2022-10-24T03:40:40.130Z,6.63
2022-10-24T03:43:46.290Z,6.45
2022-10-24T03:46:52.520Z,6.08
2022-10-24T03:49:58.842Z,6.39
2022-10-24T03:53:06.496Z,6.46
2022-10-24T03:56:12.765Z,6.45
2022-10-24T03:59:19.341Z,5.77
2022-10-24T04:02:25.048Z,6.22
2022-10-24T04:05:31.414Z,5.66
2022-10-24T04:08:38.935Z,5.64
2022-10-24T04:11:44.861Z,5.79
2022-10-24T04:14:51.051Z,5.53
2022-10-24T04:17:57.300Z,5.46
2022-10-24T04:21:03.979Z,5.33
2022-10-24T04:24:11.601Z,5.52
2022-10-24T04:27:17.987Z,5.29
2022-10-24T04:30:24.451Z,5.85
2022-10-24T04:33:30.753Z,5.75
2022-10-24T04:36:37.137Z,6.26
2022-10-24T04:39:45.085Z,6.09
2022-10-24T04:42:51.355Z,5.84
2022-10-24T04:45:57.749Z,5.85
2022-10-24T04:49:04.120Z,5.96
2022-10-24T04:52:10.272Z,5.56
2022-10-24T04:55:18.147Z,5.67
2022-10-24T04:58:24.474Z,5.67
2022-10-24T05:01:30.775Z,5.56
2022-10-24T05:04:36.559Z,5.35
2022-10-24T05:07:43.095Z,5.12
2022-10-24T05:10:51.059Z,5.14
2022-10-24T05:13:57.069Z,5.71
2022-10-24T05:17:03.481Z,5.92
2022-10-24T05:20:11.290Z,5.50
2022-10-24T05:23:17.457Z,5.93
2022-10-24T05:26:25.274Z,6.40
2022-10-24T05:29:31.428Z,6.08
2022-10-24T05:32:39.627Z,6.78
2022-10-24T05:35:46.264Z,7.16
2022-10-24T05:38:52.793Z,6.89
2022-10-24T05:42:00.696Z,6.97
2022-10-24T05:45:08.398Z,7.00
2022-10-24T05:48:14.864Z,6.84
2022-10-24T05:51:21.308Z,6.93
2022-10-24T05:54:33.431Z,7.50
2022-10-24T05:57:50.239Z,7.83
2022-10-24T06:00:56.241Z,8.02
2022-10-24T06:04:02.498Z,8.56
2022-10-24T06:07:08.823Z,8.88
2022-10-24T06:10:15.711Z,9.21
2022-10-24T06:13:23.415Z,8.77
2022-10-24T06:16:30.802Z,8.71
2022-10-24T06:19:37.915Z,9.26
2022-10-24T06:22:46.321Z,9.44
2022-10-24T06:25:52.956Z,9.62
2022-10-24T06:29:00.655Z,9.77
2022-10-24T06:32:06.721Z,9.79
2022-10-24T06:35:14.836Z,9.95
2022-10-24T06:38:20.849Z,10.18
2022-10-24T06:41:27.365Z,10.70
2022-10-24T06:44:35.152Z,10.77
2022-10-24T06:47:41.599Z,11.10
2022-10-24T06:50:48.023Z,11.05
2022-10-24T06:53:54.351Z,11.27
2022-10-24T06:57:00.803Z,11.87
2022-10-24T07:00:10.229Z,11.79
2022-10-24T07:03:17.700Z,11.75
2022-10-24T07:06:25.841Z,11.82
2022-10-24T07:09:32.140Z,12.37
2022-10-24T07:12:38.500Z,12.47
2022-10-24T07:15:46.166Z,12.40
2022-10-24T07:18:52.294Z,12.61
2022-10-24T07:21:59.426Z,12.84
2022-10-24T07:25:07.731Z,13.48
2022-10-24T07:28:13.882Z,13.84
2022-10-24T07:31:22.849Z,13.35
2022-10-24T07:34:28.877Z,13.66
2022-10-24T07:37:35.319Z,13.97
2022-10-24T07:40:41.397Z,13.63
2022-10-24T07:43:48.634Z,14.22
2022-10-24T07:46:56.116Z,13.92
2022-10-24T07:50:02.167Z,14.54
2022-10-24T07:53:08.522Z,14.36
2022-10-24T07:56:15.988Z,14.36
2022-10-24T07:59:40.875Z,14.85
2022-10-24T08:06:00.504Z,15.57
2022-10-24T08:09:06.880Z,15.47
2022-10-24T08:12:13.279Z,15.19
2022-10-24T08:15:19.876Z,15.61
2022-10-24T08:18:30.296Z,15.57
2022-10-24T08:21:37.581Z,16.31
2022-10-24T08:24:44.276Z,15.91
2022-10-24T08:27:50.381Z,15.80
2022-10-24T08:30:57.883Z,16.30
2022-10-24T08:34:06.235Z,16.71
2022-10-24T08:37:12.632Z,16.82
2022-10-24T08:40:21.047Z,16.62
2022-10-24T08:43:27.848Z,16.52
2022-10-24T08:46:49.007Z,16.91
2022-10-24T08:50:02.987Z,17.44
2022-10-24T08:53:15.171Z,18.24
2022-10-24T08:56:22.282Z,18.47
2022-10-24T08:59:32.001Z,17.79
2022-10-24T09:02:39.891Z,18.79
2022-10-24T09:05:51.695Z,18.33
2022-10-24T09:09:00.155Z,18.52
2022-10-24T09:12:12.516Z,18.30
2022-10-24T09:15:29.828Z,18.90
2022-10-24T09:18:39.422Z,18.84
2022-10-24T09:21:49.032Z,19.63
2022-10-24T09:24:59.804Z,19.72
2022-10-24T09:28:07.582Z,20.32
2022-10-24T09:31:19.005Z,20.58
2022-10-24T09:34:25.356Z,21.00
2022-10-24T09:37:43.928Z,21.49
2022-10-24T09:40:52.291Z,20.66
2022-10-24T09:44:00.605Z,21.54
2022-10-24T09:47:10.386Z,21.61
2022-10-24T09:50:21.936Z,21.62
2022-10-24T09:53:32.085Z,22.42
2022-10-24T09:56:40.677Z,22.24
2022-10-24T09:59:48.037Z,21.63
2022-10-24T10:03:03.193Z,22.30
2022-10-24T10:06:18.869Z,22.68
2022-10-24T10:09:31.870Z,22.97
2022-10-24T10:12:40.356Z,23.11
2022-10-24T10:15:50.469Z,23.45
2022-10-24T10:19:03.902Z,23.04
2022-10-24T10:22:26.635Z,23.03
2022-10-24T10:25:34.152Z,23.69
2022-10-24T10:28:49.480Z,23.03
2022-10-24T10:32:07.148Z,23.29
2022-10-24T10:35:21.249Z,23.89
2022-10-24T10:38:43.769Z,23.64
2022-10-24T10:41:59.040Z,23.88
2022-10-24T10:45:19.398Z,23.74
2022-10-24T10:48:38.843Z,23.88
2022-10-24T10:51:49.342Z,23.73
2022-10-24T10:55:15.217Z,24.34
2022-10-24T11:01:51.500Z,24.32
2022-10-24T11:05:10.597Z,24.39
2022-10-24T11:08:32.247Z,24.61
2022-10-24T11:11:42.440Z,24.09
2022-10-24T11:14:55.180Z,24.46
2022-10-24T11:18:07.775Z,24.85
2022-10-24T11:21:16.288Z,24.56
2022-10-24T11:24:24.655Z,24.35
2022-10-24T11:27:40.031Z,24.35
2022-10-24T11:30:54.341Z,24.52
2022-10-24T11:34:04.612Z,24.69
2022-10-24T11:37:17.552Z,24.79
2022-10-24T11:40:25.712Z,25.04
2022-10-24T11:43:39.158Z,24.57
2022-10-24T11:46:54.890Z,24.57
2022-10-24T11:50:08.488Z,24.66
2022-10-24T11:53:24.795Z,24.64
2022-10-24T11:56:41.263Z,24.80
2022-10-24T11:59:47.527Z,24.82
2022-10-24T12:03:24.920Z,24.52
2022-10-24T12:06:56.055Z,24.84
2022-10-24T12:10:19.329Z,24.68
2022-10-24T12:13:51.612Z,24.92
2022-10-24T12:17:27.132Z,24.80
2022-10-24T12:20:35.297Z,24.89
2022-10-24T12:23:43.242Z,24.81
2022-10-24T12:26:57.603Z,25.21
2022-10-24T12:30:17.270Z,24.83
2022-10-24T12:33:27.616Z,25.03
2022-10-24T12:37:08.278Z,24.95
2022-10-24T12:40:55.440Z,25.08
2022-10-24T12:44:41.276Z,24.83
2022-10-24T12:48:30.535Z,25.07
2022-10-24T12:51:37.616Z,24.90
2022-10-24T12:54:46.556Z,25.11
2022-10-24T12:57:52.863Z,24.97
2022-10-24T13:01:01.709Z,25.27
2022-10-24T13:04:52.280Z,24.97
2022-10-24T13:08:08.258Z,25.26
2022-10-24T13:11:34.132Z,25.41
2022-10-24T13:15:04.575Z,25.66
2022-10-24T13:18:21.043Z,25.24
2022-10-24T13:21:31.189Z,25.17
2022-10-24T13:24:38.247Z,24.94
2022-10-24T13:27:45.613Z,25.51
2022-10-24T13:30:54.237Z,24.87
2022-10-24T13:34:37.591Z,24.97
2022-10-24T13:37:49.712Z,25.07
2022-10-24T13:40:55.947Z,24.85
2022-10-24T13:44:08.811Z,24.88
2022-10-24T13:47:22.528Z,24.73
2022-10-24T13:50:31.818Z,24.94
2022-10-24T13:53:50.360Z,25.06
2022-10-24T13:56:58.466Z,24.36
2022-10-24T14:00:19.737Z,24.21
2022-10-24T14:03:29.016Z,23.89
2022-10-24T14:06:35.758Z,23.82
2022-10-24T14:09:44.525Z,23.94
2022-10-24T14:12:57.087Z,23.79
2022-10-24T14:16:08.013Z,23.60
2022-10-24T14:19:27.241Z,23.43
2022-10-24T14:22:39.887Z,23.07
2022-10-24T14:25:46.502Z,23.37
2022-10-24T14:28:59.782Z,23.13
2022-10-24T14:32:09.395Z,22.91
2022-10-24T14:35:17.222Z,22.91
2022-10-24T14:38:24.733Z,22.81
2022-10-24T14:41:32.683Z,22.78
2022-10-24T14:44:39.319Z,22.37
2022-10-24T14:47:52.810Z,22.44
2022-10-24T14:51:04.015Z,22.31
2022-10-24T14:54:18.666Z,22.20
2022-10-24T14:57:25.175Z,22.05
2022-10-24T15:00:40.233Z,21.90
2022-10-24T15:03:54.518Z,21.81
2022-10-24T15:07:14.975Z,21.73
2022-10-24T15:10:33.239Z,21.59
2022-10-24T15:13:48.183Z,21.59
2022-10-24T15:17:06.551Z,21.41
2022-10-24T15:20:18.480Z,21.25
2022-10-24T15:23:27.668Z,21.15
2022-10-24T15:26:36.763Z,20.98
2022-10-24T15:29:43.075Z,20.85
2022-10-24T15:32:51.236Z,20.86
2022-10-24T15:35:59.503Z,20.48
2022-10-24T15:39:07.771Z,20.32
2022-10-24T15:42:15.585Z,19.92
2022-10-24T15:45:24.548Z,19.68
2022-10-24T15:48:30.637Z,19.29
2022-10-24T15:51:39.425Z,19.09
2022-10-24T15:54:46.016Z,18.61
2022-10-24T15:57:52.545Z,18.28
2022-10-24T16:01:00.409Z,17.91
2022-10-24T16:04:08.379Z,17.94
2022-10-24T16:07:15.785Z,17.72
2022-10-24T16:10:24.034Z,17.57
2022-10-24T16:13:30.665Z,17.54
2022-10-24T16:16:37.165Z,17.34
2022-10-24T16:19:43.474Z,17.24
2022-10-24T16:26:16.134Z,16.88
2022-10-24T16:29:22.545Z,16.80
2022-10-24T16:32:29.103Z,16.44
2022-10-24T16:35:36.960Z,16.34
2022-10-24T16:38:45.362Z,16.32
2022-10-24T16:41:55.297Z,16.06
2022-10-24T16:45:02.496Z,16.16
2022-10-24T16:48:08.562Z,16.22
2022-10-24T16:51:17.413Z,16.17
2022-10-24T16:54:25.693Z,16.13
2022-10-24T16:57:31.975Z,15.98
2022-10-24T17:00:38.321Z,16.00
2022-10-24T17:03:46.047Z,15.62
2022-10-24T17:06:52.258Z,15.72
2022-10-24T17:10:00.007Z,15.50
2022-10-24T17:13:07.678Z,15.27
2022-10-24T17:16:13.916Z,15.33
2022-10-24T17:19:19.999Z,14.98
2022-10-24T17:22:26.379Z,15.04
2022-10-24T17:25:34.351Z,15.01
2022-10-24T17:28:40.914Z,14.92
2022-10-24T17:31:47.071Z,14.90
2022-10-24T17:34:55.423Z,14.69
2022-10-24T17:38:12.847Z,14.47
2022-10-24T17:41:25.155Z,14.20
2022-10-24T17:44:31.703Z,14.21
2022-10-24T17:47:37.746Z,14.33
2022-10-24T17:50:44.122Z,14.25
2022-10-24T17:53:50.458Z,13.91
2022-10-24T17:56:58.258Z,13.85
2022-10-24T18:00:05.076Z,13.73
2022-10-24T18:03:11.590Z,13.75
2022-10-24T18:06:18.021Z,13.64
2022-10-24T18:09:24.126Z,13.66
2022-10-24T18:12:34.721Z,13.56
2022-10-24T18:15:40.878Z,13.50
2022-10-24T18:18:48.056Z,13.18
2022-10-24T18:21:54.474Z,13.07
2022-10-24T18:25:00.646Z,13.04
2022-10-24T18:28:08.668Z,13.01
2022-10-24T18:31:16.903Z,13.10
2022-10-24T18:34:23.246Z,13.13
2022-10-24T18:37:29.695Z,13.03
2022-10-24T18:40:38.055Z,12.21
2022-10-24T18:43:46.393Z,12.24
2022-10-24T18:46:54.198Z,12.46
2022-10-24T18:50:00.798Z,12.46
2022-10-24T18:53:09.952Z,12.15
2022-10-24T18:56:18.696Z,12.16
2022-10-24T18:59:30.913Z,12.06
2022-10-24T19:02:40.570Z,12.23
2022-10-24T19:05:53.556Z,12.33
2022-10-24T19:09:01.179Z,12.26
2022-10-24T19:12:08.273Z,11.79
2022-10-24T19:15:17.063Z,11.69
2022-10-24T19:18:23.513Z,11.83
2022-10-24T19:21:29.874Z,11.50
2022-10-24T19:24:36.347Z,11.62
2022-10-24T19:27:42.802Z,11.48
2022-10-24T19:30:50.589Z,11.68
2022-10-24T19:33:56.560Z,11.36
2022-10-24T19:37:03.897Z,11.53
2022-10-24T19:40:11.267Z,11.22
2022-10-24T19:43:17.663Z,11.58
2022-10-24T19:46:25.474Z,11.06
2022-10-24T19:49:31.759Z,10.90
2022-10-24T19:52:37.919Z,10.92
2022-10-24T19:55:44.938Z,10.74
2022-10-24T19:58:51.012Z,10.66
2022-10-24T20:05:10.547Z,10.76
2022-10-24T20:08:16.799Z,10.46
2022-10-24T20:11:23.435Z,10.72
2022-10-24T20:14:29.347Z,10.47
2022-10-24T20:17:36.745Z,10.75
2022-10-24T20:20:43.902Z,10.82
2022-10-24T20:23:50.862Z,10.77
2022-10-24T20:26:57.244Z,10.63
2022-10-24T20:30:03.225Z,10.51
2022-10-24T20:33:10.768Z,10.74
2022-10-24T20:36:16.792Z,10.56
2022-10-24T20:39:23.089Z,10.73
2022-10-24T20:42:29.387Z,10.37
2022-10-24T20:45:39.970Z,10.35
2022-10-24T20:48:47.619Z,10.08
2022-10-24T20:51:53.854Z,10.03
2022-10-24T20:54:59.993Z,10.08
2022-10-24T20:58:06.751Z,9.46
2022-10-24T21:01:14.935Z,10.13
2022-10-24T21:04:22.683Z,10.17
2022-10-24T21:07:28.748Z,10.01
2022-10-24T21:10:34.963Z,10.25
2022-10-24T21:13:41.388Z,10.13
2022-10-24T21:16:47.496Z,9.78
2022-10-24T21:19:54.862Z,9.50
2022-10-24T21:23:01.408Z,9.32
2022-10-24T21:26:09.235Z,9.60
2022-10-24T21:29:32.111Z,9.74
2022-10-24T21:32:39.550Z,9.73
2022-10-24T21:35:47.298Z,9.06
2022-10-24T21:38:56.467Z,9.13
2022-10-24T21:42:02.833Z,8.95
2022-10-24T21:45:09.504Z,9.12
2022-10-24T21:48:15.944Z,9.36
2022-10-24T21:51:26.755Z,9.37
2022-10-24T21:54:33.363Z,8.88
2022-10-24T21:57:39.453Z,8.60
2022-10-24T22:00:45.816Z,8.66
2022-10-24T22:03:51.944Z,8.41
2022-10-24T22:06:59.484Z,8.64
2022-10-24T22:10:05.724Z,8.88
2022-10-24T22:13:11.769Z,9.34
2022-10-24T22:16:19.635Z,8.49
2022-10-24T22:19:25.595Z,8.53
2022-10-24T22:22:32.979Z,8.22
2022-10-24T22:25:39.184Z,8.27
2022-10-24T22:28:45.603Z,8.36
2022-10-24T22:31:53.680Z,8.64
2022-10-24T22:35:00.948Z,9.06
2022-10-24T22:38:10.051Z,8.75
2022-10-24T22:41:16.577Z,8.86
2022-10-24T22:44:23.948Z,8.78
2022-10-24T22:47:49.565Z,8.57
2022-10-24T22:50:57.999Z,8.87
2022-10-24T22:54:06.387Z,8.55
2022-10-24T22:57:12.724Z,8.40
2022-10-24T23:00:20.477Z,8.98
2022-10-24T23:03:34.123Z,8.73
2022-10-24T23:06:47.215Z,8.66
2022-10-24T23:09:54.836Z,8.24
2022-10-24T23:13:01.679Z,8.23
2022-10-24T23:16:21.539Z,8.50
2022-10-24T23:19:29.761Z,8.34
2022-10-24T23:22:35.971Z,8.69
2022-10-24T23:25:48.694Z,8.19
2022-10-24T23:29:04.009Z,8.53
2022-10-24T23:32:19.052Z,8.75
2022-10-24T23:35:25.679Z,7.94
2022-10-24T23:38:32.717Z,7.46
2022-10-24T23:41:41.520Z,7.92
2022-10-24T23:44:48.380Z,7.96
2022-10-24T23:48:22.423Z,7.72
2022-10-24T23:51:32.191Z,8.26
2022-10-24T23:54:38.819Z,7.77
2022-10-24T23:57:46.824Z,7.21
